Terminal Aerodrome Forecast
Issued by NWS

Home | Current Version | Previous Version | Text Only | Print | Product List | Glossary On
Versions: 1 2 3 4 5 6 7 8 9 10 11 12 13 14 15
000
FTUS46 KSEW 300537
TAFBLI
TAF
KBLI 300537Z 3006/3106 16012KT P6SM OVC022
     FM300900 16008KT P6SM SCT025 BKN045
     FM301300 16008KT P6SM -SHRA BKN030 OVC050
     FM302100 18012KT P6SM SCT035 BKN050 BKN070=

USA.gov is the U.S. government's official web portal to all federal, state and local government web resources and services.